sensor_id;sensor_type;location;lat;lon;timestamp;temperature;humidity
17998;DHT22;9124;48.144;17.098;2022-11-15T00:01:41;6.00;99.90
17998;DHT22;9124;48.144;17.098;2022-11-15T00:05:38;5.90;99.90
17998;DHT22;9124;48.144;17.098;2022-11-15T00:09:33;5.90;99.90
17998;DHT22;9124;48.144;17.098;2022-11-15T00:13:29;5.90;99.90
17998;DHT22;9124;48.144;17.098;2022-11-15T00:17:24;5.90;99.90
17998;DHT22;9124;48.144;17.098;2022-11-15T00:21:19;5.90;99.90
17998;DHT22;9124;48.144;17.098;2022-11-15T00:25:14;5.90;99.90
17998;DHT22;9124;48.144;17.098;2022-11-15T00:29:09;5.80;99.90
17998;DHT22;9124;48.144;17.098;2022-11-15T00:33:05;5.80;99.90
17998;DHT22;9124;48.144;17.098;2022-11-15T00:37:01;5.60;99.90
17998;DHT22;9124;48.144;17.098;2022-11-15T00:40:56;5.60;99.90
17998;DHT22;9124;48.144;17.098;2022-11-15T00:44:51;5.50;99.90
17998;DHT22;9124;48.144;17.098;2022-11-15T00:48:46;5.50;99.90
17998;DHT22;9124;48.144;17.098;2022-11-15T00:52:41;5.50;99.90
17998;DHT22;9124;48.144;17.098;2022-11-15T00:56:36;5.60;99.90
17998;DHT22;9124;48.144;17.098;2022-11-15T01:00:31;5.70;99.90
17998;DHT22;9124;48.144;17.098;2022-11-15T01:04:27;5.70;99.90
17998;DHT22;9124;48.144;17.098;2022-11-15T01:08:21;5.70;99.90
17998;DHT22;9124;48.144;17.098;2022-11-15T01:12:16;5.70;99.90
17998;DHT22;9124;48.144;17.098;2022-11-15T01:16:16;5.70;99.90
17998;DHT22;9124;48.144;17.098;2022-11-15T01:20:12;5.70;99.90
17998;DHT22;9124;48.144;17.098;2022-11-15T01:24:09;5.60;99.90
17998;DHT22;9124;48.144;17.098;2022-11-15T01:28:07;5.60;99.90
17998;DHT22;9124;48.144;17.098;2022-11-15T01:32:02;5.50;99.90
17998;DHT22;9124;48.144;17.098;2022-11-15T01:35:57;5.50;99.90
17998;DHT22;9124;48.144;17.098;2022-11-15T01:39:52;5.50;99.90
17998;DHT22;9124;48.144;17.098;2022-11-15T01:43:52;5.50;99.90
17998;DHT22;9124;48.144;17.098;2022-11-15T01:47:52;5.60;99.90
17998;DHT22;9124;48.144;17.098;2022-11-15T01:51:48;5.70;99.90
17998;DHT22;9124;48.144;17.098;2022-11-15T01:55:43;5.70;99.90
17998;DHT22;9124;48.144;17.098;2022-11-15T01:59:40;5.80;99.90
17998;DHT22;9124;48.144;17.098;2022-11-15T02:03:59;5.80;99.90
17998;DHT22;9124;48.144;17.098;2022-11-15T02:07:55;5.90;99.90
17998;DHT22;9124;48.144;17.098;2022-11-15T02:11:52;6.00;99.90
17998;DHT22;9124;48.144;17.098;2022-11-15T02:32:49;6.40;99.90
17998;DHT22;9124;48.144;17.098;2022-11-15T02:37:21;6.40;99.90
17998;DHT22;9124;48.144;17.098;2022-11-15T02:41:16;6.50;99.90
17998;DHT22;9124;48.144;17.098;2022-11-15T02:45:29;6.50;99.90
17998;DHT22;9124;48.144;17.098;2022-11-15T02:49:28;6.70;99.90
17998;DHT22;9124;48.144;17.098;2022-11-15T02:53:25;6.70;99.90
17998;DHT22;9124;48.144;17.098;2022-11-15T03:06:20;6.80;99.90
17998;DHT22;9124;48.144;17.098;2022-11-15T03:10:23;6.80;99.90
17998;DHT22;9124;48.144;17.098;2022-11-15T03:14:32;6.80;99.90
17998;DHT22;9124;48.144;17.098;2022-11-15T03:18:37;6.80;99.90
17998;DHT22;9124;48.144;17.098;2022-11-15T03:22:36;6.80;99.90
17998;DHT22;9124;48.144;17.098;2022-11-15T03:26:34;6.80;99.90
17998;DHT22;9124;48.144;17.098;2022-11-15T03:30:32;6.90;99.90
17998;DHT22;9124;48.144;17.098;2022-11-15T03:34:39;6.90;99.90
17998;DHT22;9124;48.144;17.098;2022-11-15T03:38:36;6.90;99.90
17998;DHT22;9124;48.144;17.098;2022-11-15T03:47:16;6.80;99.90
17998;DHT22;9124;48.144;17.098;2022-11-15T03:51:13;6.80;99.90
17998;DHT22;9124;48.144;17.098;2022-11-15T03:55:12;6.80;99.90
17998;DHT22;9124;48.144;17.098;2022-11-15T03:59:08;6.90;99.90
17998;DHT22;9124;48.144;17.098;2022-11-15T04:03:03;6.90;99.90
17998;DHT22;9124;48.144;17.098;2022-11-15T04:06:58;6.90;99.90
17998;DHT22;9124;48.144;17.098;2022-11-15T04:10:53;6.90;99.90
17998;DHT22;9124;48.144;17.098;2022-11-15T04:14:48;7.00;99.90
17998;DHT22;9124;48.144;17.098;2022-11-15T04:19:01;7.00;99.90
17998;DHT22;9124;48.144;17.098;2022-11-15T04:23:18;7.00;99.90
17998;DHT22;9124;48.144;17.098;2022-11-15T04:27:32;7.00;99.90
17998;DHT22;9124;48.144;17.098;2022-11-15T04:31:27;7.10;99.90
17998;DHT22;9124;48.144;17.098;2022-11-15T04:35:22;7.10;99.90
17998;DHT22;9124;48.144;17.098;2022-11-15T04:39:17;7.10;99.90
17998;DHT22;9124;48.144;17.098;2022-11-15T04:43:12;7.10;99.90
17998;DHT22;9124;48.144;17.098;2022-11-15T04:47:07;7.10;99.90
17998;DHT22;9124;48.144;17.098;2022-11-15T04:51:02;7.10;99.90
17998;DHT22;9124;48.144;17.098;2022-11-15T04:54:57;7.10;99.90
17998;DHT22;9124;48.144;17.098;2022-11-15T04:58:53;7.10;99.90
17998;DHT22;9124;48.144;17.098;2022-11-15T05:02:48;7.10;99.90
17998;DHT22;9124;48.144;17.098;2022-11-15T05:07:03;7.20;99.90
17998;DHT22;9124;48.144;17.098;2022-11-15T05:11:01;7.10;99.90
17998;DHT22;9124;48.144;17.098;2022-11-15T05:14:56;7.10;99.90
17998;DHT22;9124;48.144;17.098;2022-11-15T05:18:53;7.20;99.90
17998;DHT22;9124;48.144;17.098;2022-11-15T05:22:48;7.10;99.90
17998;DHT22;9124;48.144;17.098;2022-11-15T05:26:43;7.10;99.90
17998;DHT22;9124;48.144;17.098;2022-11-15T05:30:38;7.10;99.90
17998;DHT22;9124;48.144;17.098;2022-11-15T05:34:32;7.10;99.90
17998;DHT22;9124;48.144;17.098;2022-11-15T05:38:28;7.10;99.90
17998;DHT22;9124;48.144;17.098;2022-11-15T05:42:25;7.10;99.90
17998;DHT22;9124;48.144;17.098;2022-11-15T05:46:20;7.20;99.90
17998;DHT22;9124;48.144;17.098;2022-11-15T05:50:18;7.20;99.90
17998;DHT22;9124;48.144;17.098;2022-11-15T05:54:14;7.20;99.90
17998;DHT22;9124;48.144;17.098;2022-11-15T05:58:09;7.20;99.90
17998;DHT22;9124;48.144;17.098;2022-11-15T06:02:04;7.20;99.90
17998;DHT22;9124;48.144;17.098;2022-11-15T06:05:59;7.20;99.90
17998;DHT22;9124;48.144;17.098;2022-11-15T06:09:54;7.20;99.90
17998;DHT22;9124;48.144;17.098;2022-11-15T06:13:49;7.30;99.90
17998;DHT22;9124;48.144;17.098;2022-11-15T06:17:44;7.30;99.90
17998;DHT22;9124;48.144;17.098;2022-11-15T06:21:38;7.30;99.90
17998;DHT22;9124;48.144;17.098;2022-11-15T06:25:33;7.40;99.90
17998;DHT22;9124;48.144;17.098;2022-11-15T06:29:28;7.40;99.90
17998;DHT22;9124;48.144;17.098;2022-11-15T06:33:23;7.50;99.90
17998;DHT22;9124;48.144;17.098;2022-11-15T06:37:17;7.50;99.90
17998;DHT22;9124;48.144;17.098;2022-11-15T06:41:14;7.60;99.90
17998;DHT22;9124;48.144;17.098;2022-11-15T06:45:09;7.70;99.90
17998;DHT22;9124;48.144;17.098;2022-11-15T06:49:04;7.80;99.90
17998;DHT22;9124;48.144;17.098;2022-11-15T06:53:03;7.90;99.90
17998;DHT22;9124;48.144;17.098;2022-11-15T06:56:58;7.90;99.90
17998;DHT22;9124;48.144;17.098;2022-11-15T07:00:53;7.90;99.90
17998;DHT22;9124;48.144;17.098;2022-11-15T07:04:48;7.90;99.90
17998;DHT22;9124;48.144;17.098;2022-11-15T07:08:43;7.90;99.90
17998;DHT22;9124;48.144;17.098;2022-11-15T07:12:38;8.00;99.90
17998;DHT22;9124;48.144;17.098;2022-11-15T07:16:33;8.10;99.90
17998;DHT22;9124;48.144;17.098;2022-11-15T07:20:28;8.10;99.90
17998;DHT22;9124;48.144;17.098;2022-11-15T07:24:22;8.10;99.90
17998;DHT22;9124;48.144;17.098;2022-11-15T07:28:18;8.10;99.90
17998;DHT22;9124;48.144;17.098;2022-11-15T07:32:12;8.30;99.90
17998;DHT22;9124;48.144;17.098;2022-11-15T07:36:08;8.40;99.90
17998;DHT22;9124;48.144;17.098;2022-11-15T07:40:04;8.60;99.90
17998;DHT22;9124;48.144;17.098;2022-11-15T07:43:59;8.50;99.90
17998;DHT22;9124;48.144;17.098;2022-11-15T07:47:54;8.30;99.90
17998;DHT22;9124;48.144;17.098;2022-11-15T07:51:50;8.40;99.90
17998;DHT22;9124;48.144;17.098;2022-11-15T07:55:45;8.40;99.90
17998;DHT22;9124;48.144;17.098;2022-11-15T07:59:40;8.40;99.90
17998;DHT22;9124;48.144;17.098;2022-11-15T08:03:36;8.40;99.90
17998;DHT22;9124;48.144;17.098;2022-11-15T08:07:31;8.40;99.90
17998;DHT22;9124;48.144;17.098;2022-11-15T08:11:26;8.30;99.90
17998;DHT22;9124;48.144;17.098;2022-11-15T08:15:21;8.30;99.90
17998;DHT22;9124;48.144;17.098;2022-11-15T08:19:16;8.30;99.90
17998;DHT22;9124;48.144;17.098;2022-11-15T08:23:11;8.40;99.90
17998;DHT22;9124;48.144;17.098;2022-11-15T08:27:08;8.30;99.90
17998;DHT22;9124;48.144;17.098;2022-11-15T08:31:17;8.30;99.90
17998;DHT22;9124;48.144;17.098;2022-11-15T08:35:13;8.20;99.90
17998;DHT22;9124;48.144;17.098;2022-11-15T08:39:11;8.30;99.90
17998;DHT22;9124;48.144;17.098;2022-11-15T08:43:07;8.30;99.90
17998;DHT22;9124;48.144;17.098;2022-11-15T08:47:03;8.30;99.90
17998;DHT22;9124;48.144;17.098;2022-11-15T08:50:58;8.30;99.90
17998;DHT22;9124;48.144;17.098;2022-11-15T08:54:53;8.30;99.90
17998;DHT22;9124;48.144;17.098;2022-11-15T08:58:48;8.30;99.90
17998;DHT22;9124;48.144;17.098;2022-11-15T09:02:43;8.40;99.90
17998;DHT22;9124;48.144;17.098;2022-11-15T09:06:39;8.40;99.90
17998;DHT22;9124;48.144;17.098;2022-11-15T09:10:34;8.50;99.90
17998;DHT22;9124;48.144;17.098;2022-11-15T09:14:29;8.60;99.90
17998;DHT22;9124;48.144;17.098;2022-11-15T09:18:24;8.70;99.90
17998;DHT22;9124;48.144;17.098;2022-11-15T09:22:19;8.80;99.90
17998;DHT22;9124;48.144;17.098;2022-11-15T09:26:14;8.90;99.90
17998;DHT22;9124;48.144;17.098;2022-11-15T09:30:09;9.10;99.90
17998;DHT22;9124;48.144;17.098;2022-11-15T09:34:03;9.20;99.90
17998;DHT22;9124;48.144;17.098;2022-11-15T09:37:58;9.30;99.90
17998;DHT22;9124;48.144;17.098;2022-11-15T09:42:12;9.30;99.90
17998;DHT22;9124;48.144;17.098;2022-11-15T09:54:30;9.50;99.90
17998;DHT22;9124;48.144;17.098;2022-11-15T09:58:24;9.60;99.90
17998;DHT22;9124;48.144;17.098;2022-11-15T10:06:27;10.60;99.90
17998;DHT22;9124;48.144;17.098;2022-11-15T10:10:32;11.40;99.90
17998;DHT22;9124;48.144;17.098;2022-11-15T10:14:20;12.10;99.90
17998;DHT22;9124;48.144;17.098;2022-11-15T10:18:20;12.20;99.90
17998;DHT22;9124;48.144;17.098;2022-11-15T10:22:19;12.30;99.90
17998;DHT22;9124;48.144;17.098;2022-11-15T10:26:00;12.30;99.90
17998;DHT22;9124;48.144;17.098;2022-11-15T10:29:43;12.00;99.90
17998;DHT22;9124;48.144;17.098;2022-11-15T10:33:30;12.00;99.90
17998;DHT22;9124;48.144;17.098;2022-11-15T10:37:08;11.70;99.90
17998;DHT22;9124;48.144;17.098;2022-11-15T10:40:44;11.40;99.90
17998;DHT22;9124;48.144;17.098;2022-11-15T10:44:31;11.30;99.90
17998;DHT22;9124;48.144;17.098;2022-11-15T10:51:54;10.90;99.90
17998;DHT22;9124;48.144;17.098;2022-11-15T10:55:33;10.90;99.90
17998;DHT22;9124;48.144;17.098;2022-11-15T10:59:17;10.90;99.90
17998;DHT22;9124;48.144;17.098;2022-11-15T11:02:57;10.70;99.90
17998;DHT22;9124;48.144;17.098;2022-11-15T11:06:50;10.70;99.90
17998;DHT22;9124;48.144;17.098;2022-11-15T11:10:27;10.50;99.90
17998;DHT22;9124;48.144;17.098;2022-11-15T11:14:23;10.40;99.90
17998;DHT22;9124;48.144;17.098;2022-11-15T11:19:30;10.50;99.90
17998;DHT22;9124;48.144;17.098;2022-11-15T11:27:18;10.50;99.90
17998;DHT22;9124;48.144;17.098;2022-11-15T11:39:55;10.70;99.90
17998;DHT22;9124;48.144;17.098;2022-11-15T11:46:58;10.60;99.90
17998;DHT22;9124;48.144;17.098;2022-11-15T11:50:38;10.40;99.90
17998;DHT22;9124;48.144;17.098;2022-11-15T12:01:53;10.30;99.90
17998;DHT22;9124;48.144;17.098;2022-11-15T12:05:46;10.20;99.90
17998;DHT22;9124;48.144;17.098;2022-11-15T12:10:04;10.10;99.90
17998;DHT22;9124;48.144;17.098;2022-11-15T12:13:43;10.10;99.90
17998;DHT22;9124;48.144;17.098;2022-11-15T12:17:24;10.00;99.90
17998;DHT22;9124;48.144;17.098;2022-11-15T12:21:13;9.90;99.90
17998;DHT22;9124;48.144;17.098;2022-11-15T12:25:01;10.00;99.90
17998;DHT22;9124;48.144;17.098;2022-11-15T12:32:30;10.00;99.90
17998;DHT22;9124;48.144;17.098;2022-11-15T12:40:26;9.90;99.90
17998;DHT22;9124;48.144;17.098;2022-11-15T12:44:04;9.90;99.90
17998;DHT22;9124;48.144;17.098;2022-11-15T12:47:46;9.80;99.90
17998;DHT22;9124;48.144;17.098;2022-11-15T12:55:31;9.90;99.90
17998;DHT22;9124;48.144;17.098;2022-11-15T12:59:09;9.80;99.90
17998;DHT22;9124;48.144;17.098;2022-11-15T13:02:45;9.80;99.90
17998;DHT22;9124;48.144;17.098;2022-11-15T13:06:44;9.80;99.90
17998;DHT22;9124;48.144;17.098;2022-11-15T13:10:29;9.80;99.90
17998;DHT22;9124;48.144;17.098;2022-11-15T13:18:28;9.70;99.90
17998;DHT22;9124;48.144;17.098;2022-11-15T13:22:09;9.70;99.90
17998;DHT22;9124;48.144;17.098;2022-11-15T13:29:43;9.70;99.90
17998;DHT22;9124;48.144;17.098;2022-11-15T13:33:21;9.80;99.90
17998;DHT22;9124;48.144;17.098;2022-11-15T13:36:59;9.80;99.90
17998;DHT22;9124;48.144;17.098;2022-11-15T13:40:37;9.80;99.90
17998;DHT22;9124;48.144;17.098;2022-11-15T13:44:26;9.70;99.90
17998;DHT22;9124;48.144;17.098;2022-11-15T13:48:04;9.70;99.90
17998;DHT22;9124;48.144;17.098;2022-11-15T13:51:49;9.60;99.90
17998;DHT22;9124;48.144;17.098;2022-11-15T13:55:28;9.70;99.90
17998;DHT22;9124;48.144;17.098;2022-11-15T13:59:36;9.70;99.90
17998;DHT22;9124;48.144;17.098;2022-11-15T14:03:26;9.70;99.90
17998;DHT22;9124;48.144;17.098;2022-11-15T14:07:03;9.80;99.90
17998;DHT22;9124;48.144;17.098;2022-11-15T14:10:40;9.80;99.90
17998;DHT22;9124;48.144;17.098;2022-11-15T14:14:29;9.80;99.90
17998;DHT22;9124;48.144;17.098;2022-11-15T14:18:42;9.90;99.90
17998;DHT22;9124;48.144;17.098;2022-11-15T14:22:34;9.80;99.90
17998;DHT22;9124;48.144;17.098;2022-11-15T14:26:29;9.70;99.90
17998;DHT22;9124;48.144;17.098;2022-11-15T14:30:07;9.70;99.90
17998;DHT22;9124;48.144;17.098;2022-11-15T14:33:49;9.70;99.90
17998;DHT22;9124;48.144;17.098;2022-11-15T14:37:31;9.70;99.90
17998;DHT22;9124;48.144;17.098;2022-11-15T14:41:22;9.70;99.90
17998;DHT22;9124;48.144;17.098;2022-11-15T14:44:58;9.70;99.90
17998;DHT22;9124;48.144;17.098;2022-11-15T14:48:35;9.70;99.90
17998;DHT22;9124;48.144;17.098;2022-11-15T14:52:28;9.70;99.90
17998;DHT22;9124;48.144;17.098;2022-11-15T14:56:05;9.70;99.90
17998;DHT22;9124;48.144;17.098;2022-11-15T14:59:41;9.70;99.90
17998;DHT22;9124;48.144;17.098;2022-11-15T15:03:18;9.70;99.90
17998;DHT22;9124;48.144;17.098;2022-11-15T15:06:54;9.70;99.90
17998;DHT22;9124;48.144;17.098;2022-11-15T15:10:40;9.80;99.90
17998;DHT22;9124;48.144;17.098;2022-11-15T15:14:17;9.80;99.90
17998;DHT22;9124;48.144;17.098;2022-11-15T15:17:53;9.80;99.90
17998;DHT22;9124;48.144;17.098;2022-11-15T15:21:30;9.80;99.90
17998;DHT22;9124;48.144;17.098;2022-11-15T15:25:28;9.90;99.90
17998;DHT22;9124;48.144;17.098;2022-11-15T15:29:05;9.90;99.90
17998;DHT22;9124;48.144;17.098;2022-11-15T15:32:43;9.80;99.90
17998;DHT22;9124;48.144;17.098;2022-11-15T15:36:19;9.80;99.90
17998;DHT22;9124;48.144;17.098;2022-11-15T15:39:57;9.80;99.90
17998;DHT22;9124;48.144;17.098;2022-11-15T15:43:33;9.90;99.90
17998;DHT22;9124;48.144;17.098;2022-11-15T15:50:53;9.90;99.90
17998;DHT22;9124;48.144;17.098;2022-11-15T15:54:30;9.90;99.90
17998;DHT22;9124;48.144;17.098;2022-11-15T15:58:08;9.90;99.90
17998;DHT22;9124;48.144;17.098;2022-11-15T16:01:45;9.90;99.90
17998;DHT22;9124;48.144;17.098;2022-11-15T16:05:22;10.00;99.90
17998;DHT22;9124;48.144;17.098;2022-11-15T16:08:59;10.00;99.90
17998;DHT22;9124;48.144;17.098;2022-11-15T16:12:35;10.10;99.90
17998;DHT22;9124;48.144;17.098;2022-11-15T16:16:13;10.10;99.90
17998;DHT22;9124;48.144;17.098;2022-11-15T16:19:49;10.00;99.90
17998;DHT22;9124;48.144;17.098;2022-11-15T16:23:26;9.90;99.90
17998;DHT22;9124;48.144;17.098;2022-11-15T16:27:02;9.90;99.90
17998;DHT22;9124;48.144;17.098;2022-11-15T16:30:39;10.00;99.90
17998;DHT22;9124;48.144;17.098;2022-11-15T16:34:15;10.00;99.90
17998;DHT22;9124;48.144;17.098;2022-11-15T16:37:52;10.00;99.90
17998;DHT22;9124;48.144;17.098;2022-11-15T16:41:28;10.00;99.90
17998;DHT22;9124;48.144;17.098;2022-11-15T16:45:05;10.00;99.90
17998;DHT22;9124;48.144;17.098;2022-11-15T16:48:42;10.00;99.90
17998;DHT22;9124;48.144;17.098;2022-11-15T16:52:18;9.90;99.90
17998;DHT22;9124;48.144;17.098;2022-11-15T16:55:55;9.90;99.90
17998;DHT22;9124;48.144;17.098;2022-11-15T16:59:32;9.90;99.90
17998;DHT22;9124;48.144;17.098;2022-11-15T17:03:08;9.90;99.90
17998;DHT22;9124;48.144;17.098;2022-11-15T17:06:46;9.80;99.90
17998;DHT22;9124;48.144;17.098;2022-11-15T17:10:24;9.90;99.90
17998;DHT22;9124;48.144;17.098;2022-11-15T17:14:00;9.80;99.90
17998;DHT22;9124;48.144;17.098;2022-11-15T17:17:37;9.90;99.90
17998;DHT22;9124;48.144;17.098;2022-11-15T17:21:16;9.90;99.90
17998;DHT22;9124;48.144;17.098;2022-11-15T17:24:53;9.90;99.90
17998;DHT22;9124;48.144;17.098;2022-11-15T17:28:30;9.80;99.90
17998;DHT22;9124;48.144;17.098;2022-11-15T17:32:07;9.70;99.90
17998;DHT22;9124;48.144;17.098;2022-11-15T17:35:43;9.70;99.90
17998;DHT22;9124;48.144;17.098;2022-11-15T17:39:20;9.70;99.90
17998;DHT22;9124;48.144;17.098;2022-11-15T17:42:59;9.70;99.90
17998;DHT22;9124;48.144;17.098;2022-11-15T17:46:35;9.70;99.90
17998;DHT22;9124;48.144;17.098;2022-11-15T17:50:12;9.70;99.90
17998;DHT22;9124;48.144;17.098;2022-11-15T17:53:48;9.70;99.90
17998;DHT22;9124;48.144;17.098;2022-11-15T17:57:25;9.70;99.90
17998;DHT22;9124;48.144;17.098;2022-11-15T18:01:14;9.60;99.90
17998;DHT22;9124;48.144;17.098;2022-11-15T18:04:52;9.70;99.90
17998;DHT22;9124;48.144;17.098;2022-11-15T18:08:28;9.70;99.90
17998;DHT22;9124;48.144;17.098;2022-11-15T18:12:04;9.80;99.90
17998;DHT22;9124;48.144;17.098;2022-11-15T18:15:41;9.70;99.90
17998;DHT22;9124;48.144;17.098;2022-11-15T18:19:17;9.70;99.90
17998;DHT22;9124;48.144;17.098;2022-11-15T18:22:54;9.70;99.90
17998;DHT22;9124;48.144;17.098;2022-11-15T18:26:30;9.70;99.90
17998;DHT22;9124;48.144;17.098;2022-11-15T18:30:07;9.60;99.90
17998;DHT22;9124;48.144;17.098;2022-11-15T18:33:44;9.60;99.90
17998;DHT22;9124;48.144;17.098;2022-11-15T18:37:21;9.70;99.90
17998;DHT22;9124;48.144;17.098;2022-11-15T18:41:11;9.70;99.90
17998;DHT22;9124;48.144;17.098;2022-11-15T18:44:48;9.70;99.90
17998;DHT22;9124;48.144;17.098;2022-11-15T18:48:24;9.70;99.90
17998;DHT22;9124;48.144;17.098;2022-11-15T18:52:00;9.70;99.90
17998;DHT22;9124;48.144;17.098;2022-11-15T18:55:37;9.70;99.90
17998;DHT22;9124;48.144;17.098;2022-11-15T18:59:14;9.70;99.90
17998;DHT22;9124;48.144;17.098;2022-11-15T19:02:53;9.60;99.90
17998;DHT22;9124;48.144;17.098;2022-11-15T19:06:29;9.60;99.90
17998;DHT22;9124;48.144;17.098;2022-11-15T19:10:06;9.70;99.90
17998;DHT22;9124;48.144;17.098;2022-11-15T19:13:43;9.70;99.90
17998;DHT22;9124;48.144;17.098;2022-11-15T19:17:21;9.80;99.90
17998;DHT22;9124;48.144;17.098;2022-11-15T19:21:05;9.70;99.90
17998;DHT22;9124;48.144;17.098;2022-11-15T19:24:42;9.70;99.90
17998;DHT22;9124;48.144;17.098;2022-11-15T19:28:18;9.70;99.90
17998;DHT22;9124;48.144;17.098;2022-11-15T19:31:55;9.60;99.90
17998;DHT22;9124;48.144;17.098;2022-11-15T19:35:31;9.60;99.90
17998;DHT22;9124;48.144;17.098;2022-11-15T19:39:12;9.60;99.90
17998;DHT22;9124;48.144;17.098;2022-11-15T19:42:48;9.70;99.90
17998;DHT22;9124;48.144;17.098;2022-11-15T19:46:25;9.70;99.90
17998;DHT22;9124;48.144;17.098;2022-11-15T19:50:01;9.60;99.90
17998;DHT22;9124;48.144;17.098;2022-11-15T19:53:38;9.70;99.90
17998;DHT22;9124;48.144;17.098;2022-11-15T19:57:14;9.60;99.90
17998;DHT22;9124;48.144;17.098;2022-11-15T20:00:51;9.50;99.90
17998;DHT22;9124;48.144;17.098;2022-11-15T20:04:28;9.40;99.90
17998;DHT22;9124;48.144;17.098;2022-11-15T20:08:05;9.40;99.90
17998;DHT22;9124;48.144;17.098;2022-11-15T20:11:42;9.30;99.90
17998;DHT22;9124;48.144;17.098;2022-11-15T20:15:18;9.40;99.90
17998;DHT22;9124;48.144;17.098;2022-11-15T20:18:55;9.40;99.90
17998;DHT22;9124;48.144;17.098;2022-11-15T20:22:32;9.40;99.90
17998;DHT22;9124;48.144;17.098;2022-11-15T20:26:09;9.40;99.90
17998;DHT22;9124;48.144;17.098;2022-11-15T20:29:45;9.40;99.90
17998;DHT22;9124;48.144;17.098;2022-11-15T20:33:25;9.40;99.90
17998;DHT22;9124;48.144;17.098;2022-11-15T20:37:02;9.40;99.90
17998;DHT22;9124;48.144;17.098;2022-11-15T20:40:39;9.50;99.90
17998;DHT22;9124;48.144;17.098;2022-11-15T20:44:15;9.60;99.90
17998;DHT22;9124;48.144;17.098;2022-11-15T20:47:56;9.50;99.90
17998;DHT22;9124;48.144;17.098;2022-11-15T20:51:32;9.50;99.90
17998;DHT22;9124;48.144;17.098;2022-11-15T20:55:09;9.60;99.90
17998;DHT22;9124;48.144;17.098;2022-11-15T20:58:46;9.50;99.90
17998;DHT22;9124;48.144;17.098;2022-11-15T21:02:23;9.50;99.90
17998;DHT22;9124;48.144;17.098;2022-11-15T21:06:00;9.50;99.90
17998;DHT22;9124;48.144;17.098;2022-11-15T21:09:36;9.50;99.90
17998;DHT22;9124;48.144;17.098;2022-11-15T21:13:31;9.40;99.90
17998;DHT22;9124;48.144;17.098;2022-11-15T21:17:08;9.50;99.90
17998;DHT22;9124;48.144;17.098;2022-11-15T21:20:44;9.50;99.90
17998;DHT22;9124;48.144;17.098;2022-11-15T21:24:21;9.60;99.90
17998;DHT22;9124;48.144;17.098;2022-11-15T21:27:59;9.60;99.90
17998;DHT22;9124;48.144;17.098;2022-11-15T21:31:36;9.50;99.90
17998;DHT22;9124;48.144;17.098;2022-11-15T21:35:12;9.50;99.90
17998;DHT22;9124;48.144;17.098;2022-11-15T21:38:49;9.50;99.90
17998;DHT22;9124;48.144;17.098;2022-11-15T21:42:25;9.60;99.90
17998;DHT22;9124;48.144;17.098;2022-11-15T21:46:04;9.50;99.90
17998;DHT22;9124;48.144;17.098;2022-11-15T21:49:41;9.50;99.90
17998;DHT22;9124;48.144;17.098;2022-11-15T21:53:17;9.50;99.90
17998;DHT22;9124;48.144;17.098;2022-11-15T21:56:54;9.60;99.90
17998;DHT22;9124;48.144;17.098;2022-11-15T22:00:30;9.60;99.90
17998;DHT22;9124;48.144;17.098;2022-11-15T22:04:25;9.60;99.90
17998;DHT22;9124;48.144;17.098;2022-11-15T22:08:02;9.50;99.90
17998;DHT22;9124;48.144;17.098;2022-11-15T22:11:38;9.40;99.90
17998;DHT22;9124;48.144;17.098;2022-11-15T22:15:15;9.40;99.90
17998;DHT22;9124;48.144;17.098;2022-11-15T22:18:51;9.40;99.90
17998;DHT22;9124;48.144;17.098;2022-11-15T22:22:27;9.40;99.90
17998;DHT22;9124;48.144;17.098;2022-11-15T22:26:05;9.40;99.90
17998;DHT22;9124;48.144;17.098;2022-11-15T22:29:41;9.30;99.90
17998;DHT22;9124;48.144;17.098;2022-11-15T22:33:20;9.30;99.90
17998;DHT22;9124;48.144;17.098;2022-11-15T22:36:57;9.40;99.90
17998;DHT22;9124;48.144;17.098;2022-11-15T22:40:35;9.40;99.90
17998;DHT22;9124;48.144;17.098;2022-11-15T22:44:11;9.40;99.90
17998;DHT22;9124;48.144;17.098;2022-11-15T22:47:48;9.40;99.90
17998;DHT22;9124;48.144;17.098;2022-11-15T22:51:24;9.40;99.90
17998;DHT22;9124;48.144;17.098;2022-11-15T22:55:01;9.30;99.90
17998;DHT22;9124;48.144;17.098;2022-11-15T22:58:39;9.30;99.90
17998;DHT22;9124;48.144;17.098;2022-11-15T23:02:15;9.30;99.90
17998;DHT22;9124;48.144;17.098;2022-11-15T23:05:51;9.30;99.90
17998;DHT22;9124;48.144;17.098;2022-11-15T23:09:28;9.30;99.90
17998;DHT22;9124;48.144;17.098;2022-11-15T23:13:09;9.20;99.90
17998;DHT22;9124;48.144;17.098;2022-11-15T23:16:52;9.20;99.90
17998;DHT22;9124;48.144;17.098;2022-11-15T23:20:28;9.20;99.90
17998;DHT22;9124;48.144;17.098;2022-11-15T23:24:06;9.10;99.90
17998;DHT22;9124;48.144;17.098;2022-11-15T23:27:43;9.10;99.90
17998;DHT22;9124;48.144;17.098;2022-11-15T23:31:19;9.10;99.90
17998;DHT22;9124;48.144;17.098;2022-11-15T23:35:15;9.10;99.90
17998;DHT22;9124;48.144;17.098;2022-11-15T23:38:51;8.90;99.90
17998;DHT22;9124;48.144;17.098;2022-11-15T23:42:28;8.90;99.90
17998;DHT22;9124;48.144;17.098;2022-11-15T23:46:05;8.90;99.90
17998;DHT22;9124;48.144;17.098;2022-11-15T23:49:41;8.90;99.90
17998;DHT22;9124;48.144;17.098;2022-11-15T23:53:18;8.90;99.90
17998;DHT22;9124;48.144;17.098;2022-11-15T23:56:54;8.90;99.90
